createdAt,value
2022-10-28T00:01:20.927Z,86.95
2022-10-28T00:03:52.152Z,90.82
2022-10-28T00:06:22.829Z,90.70
2022-10-28T00:08:50.417Z,80.55
2022-10-28T00:11:20.565Z,99.32
2022-10-28T00:13:48.229Z,95.32
2022-10-28T00:16:21.113Z,87.75
2022-10-28T00:18:48.625Z,96.50
2022-10-28T00:21:18.476Z,121.72
2022-10-28T00:23:46.038Z,127.00
2022-10-28T00:26:15.611Z,121.13
2022-10-28T00:28:44.744Z,124.85
2022-10-28T00:31:13.382Z,111.25
2022-10-28T00:33:40.623Z,88.03
2022-10-28T00:36:16.860Z,89.80
2022-10-28T00:38:45.239Z,88.78
2022-10-28T00:41:14.564Z,86.07
2022-10-28T00:43:45.905Z,80.40
2022-10-28T00:46:29.619Z,84.15
2022-10-28T00:49:06.146Z,84.05
2022-10-28T00:51:35.580Z,86.80
2022-10-28T00:54:04.572Z,79.57
2022-10-28T00:56:34.658Z,81.25
2022-10-28T00:59:04.413Z,80.63
2022-10-28T01:01:31.735Z,83.13
2022-10-28T01:03:59.552Z,74.35
2022-10-28T01:06:28.786Z,71.88
2022-10-28T01:08:59.094Z,71.50
2022-10-28T01:12:06.239Z,71.00
2022-10-28T01:14:42.576Z,67.53
2022-10-28T01:17:27.804Z,76.28
2022-10-28T01:20:36.179Z,69.70
2022-10-28T01:23:12.769Z,69.97
2022-10-28T01:25:51.852Z,68.75
2022-10-28T01:28:25.209Z,69.05
2022-10-28T01:31:10.011Z,70.03
2022-10-28T01:33:44.513Z,72.22
2022-10-28T01:36:16.250Z,61.58
2022-10-28T01:38:54.818Z,67.57
2022-10-28T01:41:31.800Z,63.20
2022-10-28T01:44:34.168Z,68.05
2022-10-28T01:47:22.623Z,75.63
2022-10-28T01:50:01.033Z,71.57
2022-10-28T01:52:31.268Z,74.90
2022-10-28T01:55:08.636Z,81.45
2022-10-28T01:57:38.664Z,82.20
2022-10-28T02:00:06.660Z,75.63
2022-10-28T02:02:39.790Z,66.18
2022-10-28T02:05:46.049Z,59.13
2022-10-28T02:08:18.976Z,61.20
2022-10-28T02:11:01.489Z,76.82
2022-10-28T02:13:54.443Z,69.28
2022-10-28T02:16:30.766Z,57.47
2022-10-28T02:19:32.879Z,69.15
2022-10-28T02:22:13.081Z,70.57
2022-10-28T02:25:15.234Z,78.43
2022-10-28T02:27:45.406Z,66.85
2022-10-28T02:30:21.336Z,65.40
2022-10-28T02:32:57.893Z,63.53
2022-10-28T02:35:38.843Z,61.10
2022-10-28T02:38:11.066Z,66.65
2022-10-28T02:40:39.814Z,67.28
2022-10-28T02:43:09.143Z,69.97
2022-10-28T02:45:43.030Z,65.80
2022-10-28T02:48:19.052Z,67.07
2022-10-28T02:50:53.226Z,69.93
2022-10-28T02:56:01.604Z,72.38
2022-10-28T02:58:29.139Z,74.13
2022-10-28T03:00:56.276Z,77.03
2022-10-28T03:03:23.382Z,71.75
2022-10-28T03:05:50.508Z,68.35
2022-10-28T03:08:17.611Z,68.00
2022-10-28T03:10:44.768Z,69.65
2022-10-28T03:13:11.694Z,75.13
2022-10-28T03:15:38.759Z,69.85
2022-10-28T03:18:05.831Z,72.03
2022-10-28T03:20:32.875Z,68.97
2022-10-28T03:22:59.975Z,66.43
2022-10-28T03:25:26.895Z,77.15
2022-10-28T03:27:53.958Z,71.63
2022-10-28T03:30:20.959Z,74.33
2022-10-28T03:32:48.031Z,79.57
2022-10-28T03:35:14.999Z,93.50
2022-10-28T03:37:44.988Z,296.00
2022-10-28T03:40:12.808Z,86.67
2022-10-28T03:42:42.906Z,78.22
2022-10-28T03:45:11.214Z,86.47
2022-10-28T03:47:39.889Z,89.47
2022-10-28T03:50:07.520Z,81.80
2022-10-28T03:52:34.880Z,79.50
2022-10-28T03:55:01.988Z,80.95
2022-10-28T03:57:33.060Z,73.83
2022-10-28T04:00:00.073Z,73.07
2022-10-28T04:02:27.378Z,79.43
2022-10-28T04:04:54.412Z,75.73
2022-10-28T04:07:21.492Z,73.33
2022-10-28T04:09:51.446Z,74.10
2022-10-28T04:12:19.126Z,72.87
2022-10-28T04:14:46.131Z,71.40
2022-10-28T04:17:13.968Z,70.03
2022-10-28T04:19:41.002Z,69.13
2022-10-28T04:22:09.168Z,65.15
2022-10-28T04:24:36.268Z,66.95
2022-10-28T04:27:03.263Z,59.00
2022-10-28T04:29:30.281Z,68.53
2022-10-28T04:31:57.311Z,65.57
2022-10-28T04:34:24.277Z,64.20
2022-10-28T04:36:51.622Z,63.73
2022-10-28T04:39:18.831Z,63.00
2022-10-28T04:41:45.910Z,63.77
2022-10-28T04:44:12.841Z,60.10
2022-10-28T04:46:40.754Z,64.00
2022-10-28T04:49:07.784Z,65.05
2022-10-28T04:51:34.815Z,63.40
2022-10-28T04:54:01.806Z,60.15
2022-10-28T04:56:31.081Z,62.60
2022-10-28T04:58:58.112Z,65.70
2022-10-28T05:01:25.126Z,92.93
2022-10-28T05:03:52.116Z,62.00
2022-10-28T05:06:19.053Z,65.07
2022-10-28T05:08:46.016Z,71.90
2022-10-28T05:11:12.996Z,69.10
2022-10-28T05:13:39.999Z,61.97
2022-10-28T05:16:07.718Z,60.20
2022-10-28T05:18:34.742Z,63.87
2022-10-28T05:21:01.762Z,58.90
2022-10-28T05:23:30.934Z,59.40
2022-10-28T05:25:58.515Z,61.10
2022-10-28T05:28:25.444Z,60.13
2022-10-28T05:30:52.347Z,61.47
2022-10-28T05:33:19.522Z,61.63
2022-10-28T05:35:46.807Z,55.70
2022-10-28T05:38:13.838Z,63.63
2022-10-28T05:40:40.890Z,67.20
2022-10-28T05:43:09.477Z,67.40
2022-10-28T05:45:37.183Z,56.70
2022-10-28T05:48:04.342Z,64.18
2022-10-28T05:50:31.567Z,59.10
2022-10-28T05:52:58.849Z,57.20
2022-10-28T05:55:28.477Z,64.35
2022-10-28T05:57:56.803Z,59.72
2022-10-28T06:00:26.604Z,61.60
2022-10-28T06:03:01.332Z,76.65
2022-10-28T06:05:28.472Z,76.75
2022-10-28T06:07:55.399Z,71.93
2022-10-28T06:10:22.494Z,60.50
2022-10-28T06:12:48.209Z,60.88
2022-10-28T06:15:15.218Z,65.30
2022-10-28T06:17:45.767Z,55.85
2022-10-28T06:20:12.917Z,61.42
2022-10-28T06:22:50.695Z,57.42
2022-10-28T06:25:19.789Z,49.28
2022-10-28T06:27:55.577Z,53.65
2022-10-28T06:30:23.804Z,59.80
2022-10-28T06:32:51.178Z,70.85
2022-10-28T06:35:18.471Z,58.33
2022-10-28T06:37:45.520Z,67.03
2022-10-28T06:40:13.660Z,76.75
2022-10-28T06:42:41.498Z,77.35
2022-10-28T06:45:16.996Z,59.65
2022-10-28T06:47:47.225Z,50.88
2022-10-28T06:50:14.670Z,50.63
2022-10-28T06:52:41.560Z,49.13
2022-10-28T06:55:08.812Z,51.70
2022-10-28T06:57:35.856Z,43.05
2022-10-28T07:00:03.029Z,46.85
2022-10-28T07:02:30.047Z,46.42
2022-10-28T07:04:57.179Z,44.55
2022-10-28T07:07:24.325Z,42.58
2022-10-28T07:09:51.295Z,47.30
2022-10-28T07:14:50.865Z,41.33
2022-10-28T07:17:18.051Z,38.03
2022-10-28T07:19:45.067Z,43.53
2022-10-28T07:22:12.393Z,40.20
2022-10-28T07:24:39.425Z,47.38
2022-10-28T07:27:06.372Z,39.35
2022-10-28T07:29:33.440Z,44.03
2022-10-28T07:32:00.954Z,36.08
2022-10-28T07:34:28.043Z,39.30
2022-10-28T07:36:55.846Z,36.05
2022-10-28T07:39:23.320Z,32.95
2022-10-28T07:41:50.344Z,37.70
2022-10-28T07:44:17.598Z,33.20
2022-10-28T07:46:44.533Z,40.40
2022-10-28T07:49:11.698Z,37.22
2022-10-28T07:51:38.660Z,31.92
2022-10-28T07:54:05.846Z,35.25
2022-10-28T07:56:32.837Z,39.67
2022-10-28T07:59:01.915Z,34.25
2022-10-28T08:01:30.417Z,30.52
2022-10-28T08:03:58.462Z,34.28
2022-10-28T08:06:25.567Z,28.38
2022-10-28T08:08:57.257Z,30.52
2022-10-28T08:11:24.570Z,32.53
2022-10-28T08:13:52.423Z,29.95
2022-10-28T08:16:19.804Z,29.83
2022-10-28T08:18:47.368Z,31.73
2022-10-28T08:21:15.555Z,30.90
2022-10-28T08:23:46.687Z,31.33
2022-10-28T08:26:15.801Z,26.90
2022-10-28T08:28:43.543Z,29.83
2022-10-28T08:31:12.491Z,27.40
2022-10-28T08:33:45.532Z,26.58
2022-10-28T08:36:14.332Z,27.60
2022-10-28T08:38:45.852Z,27.90
2022-10-28T08:41:47.420Z,26.48
2022-10-28T08:44:23.994Z,26.38
2022-10-28T08:47:15.945Z,26.30
2022-10-28T08:49:49.224Z,24.83
2022-10-28T08:52:25.901Z,27.73
2022-10-28T08:55:18.523Z,24.55
2022-10-28T08:57:58.376Z,21.58
2022-10-28T09:00:31.304Z,17.50
2022-10-28T09:03:03.537Z,23.63
2022-10-28T09:05:31.002Z,22.92
2022-10-28T09:07:58.946Z,23.40
2022-10-28T09:10:44.364Z,21.20
2022-10-28T09:13:14.194Z,22.13
2022-10-28T09:16:15.973Z,22.02
2022-10-28T09:18:55.920Z,19.52
2022-10-28T09:21:48.940Z,20.63
2022-10-28T09:24:21.002Z,19.50
2022-10-28T09:27:06.425Z,18.17
2022-10-28T09:29:51.732Z,19.98
2022-10-28T09:32:41.833Z,21.20
2022-10-28T09:35:24.960Z,19.17
2022-10-28T09:37:59.510Z,20.23
2022-10-28T09:40:30.821Z,21.70
2022-10-28T09:43:27.179Z,18.05
2022-10-28T09:46:00.981Z,20.55
2022-10-28T09:48:33.095Z,19.50
2022-10-28T09:51:01.033Z,20.80
2022-10-28T09:53:49.863Z,23.33
2022-10-28T09:56:16.997Z,22.45
2022-10-28T09:58:47.873Z,23.83
2022-10-28T10:01:17.969Z,21.25
2022-10-28T10:03:49.421Z,18.98
2022-10-28T10:06:26.125Z,24.17
2022-10-28T10:08:59.255Z,21.83
2022-10-28T10:11:44.320Z,29.50
2022-10-28T10:14:15.956Z,22.75
2022-10-28T10:16:48.057Z,21.88
2022-10-28T10:19:15.131Z,23.67
2022-10-28T10:21:51.102Z,21.65
2022-10-28T10:24:25.373Z,20.25
2022-10-28T10:26:53.534Z,18.45
2022-10-28T10:29:22.162Z,22.70
2022-10-28T10:32:05.946Z,19.17
2022-10-28T10:34:33.557Z,22.90
2022-10-28T10:37:00.701Z,19.17
2022-10-28T10:39:37.011Z,21.25
2022-10-28T10:42:16.480Z,23.75
2022-10-28T10:44:43.960Z,21.10
2022-10-28T10:47:11.896Z,20.42
2022-10-28T10:49:39.099Z,23.15
2022-10-28T10:52:28.572Z,23.13
2022-10-28T10:55:03.727Z,21.08
2022-10-28T10:57:31.905Z,22.27
2022-10-28T10:59:59.349Z,22.33
2022-10-28T11:02:35.152Z,21.88
2022-10-28T11:05:10.694Z,23.02
2022-10-28T11:07:40.565Z,21.00
2022-10-28T11:10:30.234Z,23.35
2022-10-28T11:13:02.101Z,22.98
2022-10-28T11:15:31.277Z,21.05
2022-10-28T11:18:21.039Z,22.30
2022-10-28T11:21:07.882Z,20.90
2022-10-28T11:23:37.913Z,18.80
2022-10-28T11:26:09.667Z,23.98
2022-10-28T11:29:10.015Z,24.73
2022-10-28T11:32:05.442Z,18.17
2022-10-28T11:34:55.611Z,17.88
2022-10-28T11:37:41.271Z,16.08
2022-10-28T11:40:30.942Z,18.25
2022-10-28T11:43:09.895Z,15.80
2022-10-28T11:46:04.876Z,20.58
2022-10-28T11:48:50.630Z,17.63
2022-10-28T11:51:31.091Z,14.07
2022-10-28T11:54:25.479Z,17.55
2022-10-28T11:57:06.077Z,14.48
2022-10-28T12:00:00.698Z,15.65
2022-10-28T12:02:53.693Z,14.27
2022-10-28T12:05:28.419Z,12.73
2022-10-28T12:08:10.689Z,15.80
2022-10-28T12:11:04.950Z,14.15
2022-10-28T12:13:41.405Z,15.90
2022-10-28T12:16:29.008Z,15.63
2022-10-28T12:19:14.867Z,15.10
2022-10-28T12:22:00.035Z,18.85
2022-10-28T12:24:28.722Z,17.15
2022-10-28T12:26:59.707Z,18.13
2022-10-28T12:29:41.530Z,12.77
2022-10-28T12:32:14.191Z,15.13
2022-10-28T12:34:51.054Z,14.98
2022-10-28T12:37:48.712Z,13.50
2022-10-28T12:40:23.210Z,13.05
2022-10-28T12:43:12.090Z,14.60
2022-10-28T12:45:42.412Z,18.40
2022-10-28T12:48:38.999Z,13.63
2022-10-28T12:51:29.203Z,18.02
2022-10-28T12:54:17.635Z,18.85
2022-10-28T12:56:50.948Z,16.88
2022-10-28T12:59:38.039Z,18.42
2022-10-28T13:02:13.196Z,16.58
2022-10-28T13:04:41.179Z,16.30
2022-10-28T13:07:36.052Z,17.35
2022-10-28T13:10:25.694Z,18.63
2022-10-28T13:13:26.370Z,14.73
2022-10-28T13:16:19.014Z,15.18
2022-10-28T13:19:18.175Z,16.33
2022-10-28T13:22:06.021Z,17.60
2022-10-28T13:24:49.484Z,16.73
2022-10-28T13:27:17.079Z,17.13
2022-10-28T13:29:51.367Z,19.95
2022-10-28T13:32:40.433Z,14.65
2022-10-28T13:35:22.486Z,23.30
2022-10-28T13:37:51.825Z,17.25
2022-10-28T13:40:31.054Z,21.45
2022-10-28T13:42:59.618Z,19.60
2022-10-28T13:45:48.443Z,27.52
2022-10-28T13:48:43.117Z,21.60
2022-10-28T13:51:10.384Z,16.08
2022-10-28T13:53:54.111Z,21.08
2022-10-28T13:56:44.829Z,17.10
2022-10-28T13:59:14.623Z,16.70
2022-10-28T14:01:41.734Z,17.65
2022-10-28T14:04:28.112Z,19.33
2022-10-28T14:07:14.065Z,24.35
2022-10-28T14:09:41.817Z,18.27
2022-10-28T14:12:26.146Z,20.98
2022-10-28T14:14:56.030Z,23.70
2022-10-28T14:17:27.305Z,21.60
2022-10-28T14:19:55.212Z,29.98
2022-10-28T14:22:33.143Z,23.95
2022-10-28T14:25:01.075Z,22.35
2022-10-28T14:27:39.477Z,21.65
2022-10-28T14:30:16.184Z,24.80
2022-10-28T14:33:18.585Z,20.77
2022-10-28T14:35:48.295Z,21.60
2022-10-28T14:38:49.804Z,22.73
2022-10-28T14:41:35.300Z,21.13
2022-10-28T14:44:31.023Z,15.85
2022-10-28T14:47:22.700Z,15.43
2022-10-28T14:50:02.250Z,17.13
2022-10-28T14:52:33.684Z,15.18
2022-10-28T14:55:05.439Z,15.93
2022-10-28T14:57:36.068Z,17.35
2022-10-28T15:00:07.344Z,18.55
2022-10-28T15:02:37.281Z,19.52
2022-10-28T15:05:22.048Z,15.68
2022-10-28T15:07:49.227Z,17.38
2022-10-28T15:10:26.147Z,19.10
2022-10-28T15:12:55.227Z,23.52
2022-10-28T15:15:27.744Z,26.38
2022-10-28T15:17:55.310Z,32.22
2022-10-28T15:20:28.094Z,20.10
2022-10-28T15:23:20.849Z,21.40
2022-10-28T15:26:09.845Z,18.20
2022-10-28T15:28:38.015Z,23.83
2022-10-28T15:31:05.122Z,22.73
2022-10-28T15:33:38.021Z,23.67
2022-10-28T15:36:17.838Z,21.38
2022-10-28T15:39:08.050Z,20.65
2022-10-28T15:41:41.529Z,21.67
2022-10-28T15:44:26.039Z,21.88
2022-10-28T15:46:53.574Z,26.48
2022-10-28T15:49:41.084Z,30.52
2022-10-28T15:52:39.222Z,27.50
2022-10-28T15:55:35.993Z,27.30
2022-10-28T15:58:19.242Z,33.63
2022-10-28T16:00:54.954Z,25.48
2022-10-28T16:06:00.375Z,27.48
2022-10-28T16:08:30.160Z,25.60
2022-10-28T16:11:03.353Z,22.40
2022-10-28T16:13:37.384Z,25.88
2022-10-28T16:16:04.407Z,30.33
2022-10-28T16:18:35.078Z,27.00
2022-10-28T16:21:04.554Z,24.02
2022-10-28T16:23:38.977Z,25.48
2022-10-28T16:26:06.652Z,26.55
2022-10-28T16:28:34.015Z,26.55
2022-10-28T16:31:02.603Z,25.73
2022-10-28T16:33:35.309Z,27.05
2022-10-28T16:36:03.251Z,26.77
2022-10-28T16:38:31.417Z,30.83
2022-10-28T16:41:00.326Z,33.63
2022-10-28T16:43:29.604Z,28.58
2022-10-28T16:46:00.990Z,27.83
2022-10-28T16:48:30.725Z,31.80
2022-10-28T16:51:01.669Z,30.45
2022-10-28T16:53:29.104Z,31.90
2022-10-28T16:55:59.091Z,33.17
2022-10-28T16:58:28.008Z,32.13
2022-10-28T17:00:56.352Z,39.90
2022-10-28T17:03:23.435Z,31.63
2022-10-28T17:05:50.437Z,35.28
2022-10-28T17:08:30.777Z,40.92
2022-10-28T17:11:04.781Z,48.17
2022-10-28T17:13:31.770Z,52.00
2022-10-28T17:15:58.715Z,50.45
2022-10-28T17:18:25.963Z,51.72
2022-10-28T17:21:03.131Z,56.53
2022-10-28T17:23:30.395Z,52.53
2022-10-28T17:26:02.940Z,51.25
2022-10-28T17:28:30.074Z,57.05
2022-10-28T17:31:05.530Z,59.25
2022-10-28T17:33:33.122Z,52.97
2022-10-28T17:36:08.716Z,55.42
2022-10-28T17:38:36.854Z,61.50
2022-10-28T17:41:04.092Z,66.68
2022-10-28T17:43:31.351Z,66.32
2022-10-28T17:46:06.111Z,66.50
2022-10-28T17:48:34.060Z,65.55
2022-10-28T17:51:01.190Z,75.05
2022-10-28T17:53:28.334Z,74.50
2022-10-28T17:55:59.697Z,68.68
2022-10-28T17:58:27.323Z,74.25
2022-10-28T18:01:03.182Z,71.68
2022-10-28T18:03:33.993Z,75.03
2022-10-28T18:06:10.859Z,77.05
2022-10-28T18:08:40.135Z,76.60
2022-10-28T18:11:09.271Z,72.80
2022-10-28T18:13:38.482Z,72.95
2022-10-28T18:16:14.153Z,69.03
2022-10-28T18:18:42.738Z,69.50
2022-10-28T18:21:13.500Z,69.07
2022-10-28T18:23:41.334Z,70.50
2022-10-28T18:26:12.268Z,72.65
2022-10-28T18:28:40.277Z,73.35
2022-10-28T18:31:16.433Z,83.65
2022-10-28T18:33:44.442Z,71.65
2022-10-28T18:36:15.159Z,78.30
2022-10-28T18:38:42.455Z,74.78
2022-10-28T18:41:14.779Z,74.85
2022-10-28T18:43:42.270Z,73.22
2022-10-28T18:46:09.690Z,78.13
2022-10-28T18:48:36.776Z,70.47
2022-10-28T18:51:06.864Z,71.32
2022-10-28T18:53:39.402Z,75.03
2022-10-28T18:56:08.721Z,75.28
2022-10-28T18:58:35.799Z,67.03
2022-10-28T19:01:07.984Z,66.25
2022-10-28T19:03:35.269Z,65.38
2022-10-28T19:06:11.118Z,68.05
2022-10-28T19:08:39.032Z,62.08
2022-10-28T19:11:07.308Z,73.25
2022-10-28T19:13:39.616Z,70.55
2022-10-28T19:16:07.516Z,74.45
2022-10-28T19:18:38.452Z,78.40
2022-10-28T19:21:13.683Z,78.22
2022-10-28T19:23:41.884Z,80.20
2022-10-28T19:26:10.417Z,81.70
2022-10-28T19:28:41.545Z,78.75
2022-10-28T19:31:14.366Z,83.72
2022-10-28T19:33:43.271Z,82.82
2022-10-28T19:36:18.588Z,83.90
2022-10-28T19:38:46.948Z,85.70
2022-10-28T19:41:16.633Z,86.72
2022-10-28T19:43:44.172Z,94.30
2022-10-28T19:46:17.239Z,96.97
2022-10-28T19:48:47.267Z,106.22
2022-10-28T19:51:17.360Z,106.10
2022-10-28T19:53:49.284Z,106.15
2022-10-28T19:56:19.285Z,108.53
2022-10-28T19:58:57.650Z,109.07
2022-10-28T20:01:27.920Z,112.07
2022-10-28T20:03:55.757Z,109.03
2022-10-28T20:06:29.832Z,120.55
2022-10-28T20:08:56.784Z,114.13
2022-10-28T20:11:26.943Z,118.90
2022-10-28T20:14:03.316Z,112.10
2022-10-28T20:16:31.343Z,120.38
2022-10-28T20:18:58.977Z,116.50
2022-10-28T20:21:28.510Z,113.65
2022-10-28T20:23:57.005Z,114.80
2022-10-28T20:26:29.858Z,110.80
2022-10-28T20:28:58.346Z,108.55
2022-10-28T20:31:27.541Z,109.72
2022-10-28T20:34:00.640Z,106.22
2022-10-28T20:36:35.158Z,104.28
2022-10-28T20:39:09.651Z,105.05
2022-10-28T20:41:38.573Z,105.32
2022-10-28T20:44:06.564Z,106.70
2022-10-28T20:46:33.768Z,111.43
2022-10-28T20:49:01.001Z,98.75
2022-10-28T20:51:31.845Z,98.63
2022-10-28T20:53:59.419Z,89.72
2022-10-28T20:56:31.473Z,96.95
2022-10-28T20:58:59.366Z,91.57
2022-10-28T21:01:29.529Z,94.75
2022-10-28T21:04:01.387Z,96.43
2022-10-28T21:06:29.607Z,94.47
2022-10-28T21:08:57.667Z,91.55
2022-10-28T21:11:25.611Z,91.10
2022-10-28T21:13:55.427Z,97.78
2022-10-28T21:16:25.386Z,102.00
2022-10-28T21:18:53.404Z,111.78
2022-10-28T21:21:21.679Z,112.70
2022-10-28T21:23:48.858Z,103.53
2022-10-28T21:26:15.816Z,107.57
2022-10-28T21:28:42.898Z,113.85
2022-10-28T21:31:15.157Z,108.22
2022-10-28T21:33:43.307Z,110.50
2022-10-28T21:36:14.247Z,117.13
2022-10-28T21:38:41.826Z,119.15
2022-10-28T21:41:15.798Z,112.13
2022-10-28T21:43:45.517Z,107.72
2022-10-28T21:46:12.744Z,104.78
2022-10-28T21:48:40.181Z,102.53
2022-10-28T21:51:13.435Z,107.22
2022-10-28T21:53:43.286Z,107.40
2022-10-28T21:56:18.276Z,104.93
2022-10-28T21:58:47.775Z,114.35
2022-10-28T22:01:16.223Z,118.32
2022-10-28T22:03:43.611Z,122.63
2022-10-28T22:06:11.292Z,127.40
2022-10-28T22:08:38.563Z,135.18
2022-10-28T22:11:09.812Z,139.88
2022-10-28T22:13:36.954Z,143.93
2022-10-28T22:16:07.162Z,134.32
2022-10-28T22:18:36.216Z,131.05
2022-10-28T22:21:11.887Z,135.70
2022-10-28T22:23:39.476Z,143.60
2022-10-28T22:26:08.889Z,138.45
2022-10-28T22:28:35.928Z,139.07
2022-10-28T22:31:06.207Z,135.02
2022-10-28T22:33:33.509Z,139.95
2022-10-28T22:36:03.729Z,119.47
2022-10-28T22:38:30.887Z,115.07
2022-10-28T22:41:06.164Z,112.80
2022-10-28T22:43:33.909Z,116.18
2022-10-28T22:46:01.829Z,118.53
2022-10-28T22:48:28.842Z,110.28
2022-10-28T22:50:56.708Z,120.85
2022-10-28T22:53:24.005Z,114.65
2022-10-28T22:55:53.671Z,111.47
2022-10-28T22:58:21.677Z,131.57
2022-10-28T23:00:50.017Z,125.63
2022-10-28T23:03:17.516Z,119.53
2022-10-28T23:05:44.462Z,125.90
2022-10-28T23:08:16.285Z,123.72
2022-10-28T23:10:43.550Z,113.95
2022-10-28T23:13:12.361Z,121.20
2022-10-28T23:15:39.497Z,130.15
2022-10-28T23:18:06.520Z,119.35
2022-10-28T23:20:35.824Z,126.85
2022-10-28T23:23:02.868Z,125.53
2022-10-28T23:25:30.020Z,131.77
2022-10-28T23:27:57.770Z,136.68
2022-10-28T23:30:25.165Z,140.30
2022-10-28T23:32:52.362Z,171.98
2022-10-28T23:35:19.275Z,181.77
2022-10-28T23:37:46.296Z,223.98
2022-10-28T23:40:13.428Z,359.15
2022-10-28T23:42:40.478Z,307.92
2022-10-28T23:45:09.533Z,1068.13
2022-10-28T23:47:36.827Z,667.50
2022-10-28T23:50:04.259Z,405.67
2022-10-28T23:52:31.325Z,359.02
2022-10-28T23:54:58.382Z,315.02
2022-10-28T23:57:25.346Z,290.00
2022-10-28T23:59:53.664Z,244.02
